ADDS TAF Board (Experimental) INFO Settings
IDs: Format: Expanded Condensed

KPIT - Pittsburgh Intl, PA, US

Issued at 2047 UTC 30 May 2016
Updated at: 2210 UTC 30 May 2016
Time2151Z 30/23Z 31/00Z 31/01Z 31/02Z 31/03Z 31/04Z 31/05Z 31/06Z 31/07Z 31/08Z 31/09Z 31/10Z 31/11Z
Type OBS PRVL PRVL PRVL PRVL PRVL PRVL PRVL PRVL PRVL PRVL PRVL PRVL PRVL
VIS 10 >6 >6 >6 >6 >6 >6 >6 >6 >6 >6 >6 >6 >6
CIG -- -- -- -- -- -- -- -- -- -- -- -- -- --
Cover FEW FEW FEW FEW FEW FEW FEW FEW FEW FEW FEW SKC SKC SKC
FltCat VFR VFR VFR VFR VFR VFR VFR VFR VFR VFR VFR VFR VFR VFR
WX -- -- -- -- -- -- -- -- -- -- -- -- -- --
WDir 10 310 310 310 310 310 310 310 310 310 310 VRB VRB VRB
WSpd 10 8 8 8 8 8 8 8 8 8 8 0 0 0
WGst -- -- -- -- -- -- -- -- -- -- -- -- -- --
R10/28
XWnd 10 5 5 5 5 5 5 5 5 5 5 VRB VRB VRB
HWnd 1 -6 -6 -6 -6 -6 -6 -6 -6 -6 -6 VRB VRB VRB
R14/32
XWnd 8 -1 -1 -1 -1 -1 -1 -1 -1 -1 -1 VRB VRB VRB
HWnd -6 -8 -8 -8 -8 -8 -8 -8 -8 -8 -8 VRB VRB VRB

NOTE: TEMPO conditions in [brackets]. Keep in mind TEMPO conditions might be better (lower impact) than prevailing conditions.

Raw TAF
KPIT 302047Z 3021/3124 31008KT P6SM FEW050
  FM310900 00000KT P6SM SKC
  FM311200 36006KT P6SM SCT050


Raw METAR
KPIT 302151Z 01010KT 10SM FEW055 FEW250 28/11 A2997 RMK AO2 SLP148 T02830111
KPIT 302051Z 33011G19KT 10SM FEW050 SCT250 28/13 A2998 RMK AO2 SLP150 T02830128 58013
KPIT 301951Z 32010KT 10SM FEW050 FEW095 BKN250 28/13 A3000 RMK AO2 SLP156 MDT CU T02780133

METAR Board
Radar Display
Forecast Discussion

TAF Board Legend

Potential Impact
Threat None Slight Moderate High
Visibility (sm) ≥5.1 5.1>X≥3 3>X≥1 <1
Ceiling (100 ft) ≥30.1 30.1>X≥10 10>X≥5 <5
Wind Speed (kt) <10 10≤X<20 20≤X<30 ≥30
Wind Gust (kt) <15 15≤X<25 25≤X<35 ≥35
Weather No Wx Reported VCTS,-TS,-FZRA,SN TS,FZRA +TS,+FZRA,+SN